createdAt,value
2023-12-18T05:40:50.131Z,3.80
2023-12-18T05:43:17.275Z,3.80
2023-12-18T05:45:44.188Z,3.81
2023-12-18T05:48:10.840Z,3.83
2023-12-18T05:50:37.873Z,3.85
2023-12-18T05:53:05.238Z,3.88
2023-12-18T05:55:32.136Z,3.90
2023-12-18T05:57:58.623Z,3.91
2023-12-18T06:00:25.197Z,3.92
2023-12-18T06:02:51.807Z,3.94
2023-12-18T06:05:18.295Z,3.94
2023-12-18T06:07:45.003Z,3.95
2023-12-18T06:10:11.494Z,3.95
2023-12-18T06:12:38.194Z,3.97
2023-12-18T06:15:05.936Z,3.99
2023-12-18T06:17:33.213Z,4.01
2023-12-18T06:19:59.967Z,4.02
2023-12-18T06:22:30.368Z,4.03
2023-12-18T06:25:02.816Z,4.05
2023-12-18T06:27:34.692Z,4.07
2023-12-18T06:30:22.632Z,4.09
2023-12-18T06:39:44.858Z,4.17
2023-12-18T06:46:17.050Z,4.23
2023-12-18T06:49:14.822Z,4.26
2023-12-18T06:52:13.782Z,4.28
2023-12-18T06:55:02.937Z,4.29
2023-12-18T06:58:04.976Z,4.29
2023-12-18T07:00:39.930Z,4.31
2023-12-18T07:03:11.484Z,4.33
2023-12-18T07:05:56.089Z,4.35
2023-12-18T07:08:29.346Z,4.39
2023-12-18T07:11:35.317Z,4.42
2023-12-18T07:14:03.774Z,4.45
2023-12-18T07:17:15.408Z,4.48
2023-12-18T07:20:02.000Z,4.52
2023-12-18T07:22:44.019Z,4.55
2023-12-18T07:25:31.342Z,4.58
2023-12-18T07:28:10.919Z,4.61
2023-12-18T07:30:40.375Z,4.63
2023-12-18T07:33:07.590Z,4.63
2023-12-18T07:35:34.665Z,4.61
2023-12-18T07:38:03.600Z,4.60
2023-12-18T07:40:31.878Z,4.59
2023-12-18T07:42:58.526Z,4.60
2023-12-18T07:45:25.626Z,4.60
2023-12-18T07:47:52.452Z,4.61
2023-12-18T07:50:19.517Z,4.63
2023-12-18T07:52:46.802Z,4.63
2023-12-18T07:55:31.816Z,4.63
2023-12-18T07:58:07.019Z,4.64
2023-12-18T08:00:35.783Z,4.66
2023-12-18T08:03:20.696Z,4.67
2023-12-18T08:05:53.802Z,4.68
2023-12-18T08:08:20.856Z,4.68
2023-12-18T08:10:48.564Z,4.69
2023-12-18T08:13:15.266Z,4.70
2023-12-18T08:15:42.984Z,4.72
2023-12-18T08:18:25.961Z,4.73
2023-12-18T08:20:57.814Z,4.75
2023-12-18T08:23:24.989Z,4.78
2023-12-18T08:25:52.158Z,4.80
2023-12-18T08:28:19.830Z,4.82
2023-12-18T08:30:55.182Z,4.85
2023-12-18T08:33:36.535Z,4.89
2023-12-18T08:36:08.769Z,4.94
2023-12-18T08:38:39.701Z,4.98
2023-12-18T08:41:11.566Z,5.03
2023-12-18T08:43:42.669Z,5.07
2023-12-18T08:46:15.461Z,5.09
2023-12-18T08:48:49.749Z,5.12
2023-12-18T08:51:26.303Z,5.17
2023-12-18T08:53:55.086Z,5.23
2023-12-18T08:56:22.180Z,5.27
2023-12-18T08:58:53.479Z,5.28
2023-12-18T09:01:26.704Z,5.28
2023-12-18T09:04:15.070Z,5.29
2023-12-18T09:06:54.559Z,5.30
2023-12-18T09:09:45.852Z,5.33
2023-12-18T09:12:13.422Z,5.34
2023-12-18T09:14:40.178Z,5.33
2023-12-18T09:17:06.881Z,5.32
2023-12-18T09:19:33.753Z,5.33
2023-12-18T09:22:06.751Z,5.34
2023-12-18T09:24:45.384Z,5.34
2023-12-18T09:27:13.443Z,5.31
2023-12-18T09:29:40.149Z,5.29
2023-12-18T09:32:08.455Z,5.27
2023-12-18T09:34:35.526Z,5.26
2023-12-18T09:37:20.261Z,5.25
2023-12-18T09:39:53.692Z,5.25
2023-12-18T09:42:21.913Z,5.25
2023-12-18T09:44:48.830Z,5.24
2023-12-18T09:47:19.235Z,5.22
2023-12-18T09:49:47.603Z,5.20
2023-12-18T09:52:39.426Z,5.19
2023-12-18T09:55:57.523Z,5.20
2023-12-18T09:59:01.933Z,5.19
2023-12-18T10:01:42.765Z,5.17
2023-12-18T10:04:11.064Z,5.16
2023-12-18T10:06:38.186Z,5.16
2023-12-18T10:09:14.332Z,5.16
2023-12-18T10:11:42.419Z,5.18
2023-12-18T10:14:11.103Z,5.17
2023-12-18T10:16:40.514Z,5.17
2023-12-18T10:19:08.705Z,5.16
2023-12-18T10:21:36.926Z,5.14
2023-12-18T10:24:05.312Z,5.12
2023-12-18T10:26:33.000Z,5.11
2023-12-18T10:29:01.600Z,5.09
2023-12-18T10:31:28.948Z,5.07
2023-12-18T10:33:55.935Z,5.05
2023-12-18T10:36:23.231Z,5.03
2023-12-18T10:38:53.435Z,5.01
2023-12-18T10:41:21.632Z,5.00
2023-12-18T10:44:40.733Z,4.99
2023-12-18T10:47:38.857Z,4.98
2023-12-18T10:50:30.740Z,4.98
2023-12-18T10:53:21.902Z,4.98
2023-12-18T10:57:09.404Z,5.00
2023-12-18T11:00:25.338Z,5.02
2023-12-18T11:03:41.125Z,5.04
2023-12-18T11:06:20.923Z,5.04
2023-12-18T11:09:25.011Z,5.02
2023-12-18T11:12:16.800Z,5.00
2023-12-18T11:15:02.492Z,4.98
2023-12-18T11:17:33.949Z,4.97
2023-12-18T11:20:01.185Z,4.95
2023-12-18T11:22:41.702Z,4.94
2023-12-18T11:25:21.036Z,4.93
2023-12-18T11:27:50.937Z,4.93
2023-12-18T11:30:30.624Z,4.93
2023-12-18T11:32:57.643Z,4.93
2023-12-18T11:35:27.046Z,4.94
2023-12-18T11:37:54.600Z,4.93
2023-12-18T11:40:34.826Z,4.94
2023-12-18T11:43:01.677Z,4.95
2023-12-18T11:45:28.619Z,4.94
2023-12-18T11:47:57.822Z,4.94
2023-12-18T11:50:27.777Z,4.93
2023-12-18T11:52:55.848Z,4.95
2023-12-18T11:55:38.190Z,4.95
2023-12-18T11:58:07.873Z,4.95
2023-12-18T12:00:36.246Z,4.95
2023-12-18T12:03:06.971Z,4.95
2023-12-18T12:05:36.449Z,4.95
2023-12-18T12:08:03.546Z,4.93
2023-12-18T12:10:30.611Z,4.93
2023-12-18T12:12:57.703Z,4.94
2023-12-18T12:18:59.058Z,4.95
2023-12-18T12:30:15.140Z,4.85
2023-12-18T12:40:58.784Z,4.73
2023-12-18T12:43:33.248Z,4.68
2023-12-18T12:46:43.389Z,4.65
2023-12-18T12:49:13.496Z,4.61
2023-12-18T12:51:40.408Z,4.58
2023-12-18T12:54:08.967Z,4.54
2023-12-18T12:56:35.764Z,4.52
2023-12-18T12:59:05.599Z,4.50
2023-12-18T13:01:32.971Z,4.47
2023-12-18T13:03:59.859Z,4.45
2023-12-18T13:06:27.702Z,4.44
2023-12-18T13:08:56.733Z,4.42
2023-12-18T13:11:27.528Z,4.41
2023-12-18T13:13:56.670Z,4.39
2023-12-18T13:16:25.593Z,4.39
2023-12-18T13:18:52.303Z,4.38
2023-12-18T13:21:19.076Z,4.38
2023-12-18T13:23:45.875Z,4.39
2023-12-18T13:26:12.547Z,4.39
2023-12-18T13:28:39.245Z,4.38
2023-12-18T13:31:06.054Z,4.37
2023-12-18T13:33:33.746Z,4.35
2023-12-18T13:36:00.771Z,4.33
2023-12-18T13:38:27.435Z,4.32
2023-12-18T13:40:54.057Z,4.31
2023-12-18T13:43:20.825Z,4.32
2023-12-18T13:45:47.866Z,4.33
2023-12-18T13:48:14.712Z,4.33
2023-12-18T13:50:44.374Z,4.33
2023-12-18T13:53:13.080Z,4.33
2023-12-18T13:55:39.986Z,4.33
2023-12-18T13:58:06.692Z,4.33
2023-12-18T14:00:33.974Z,4.32
2023-12-18T14:03:04.009Z,4.32
2023-12-18T14:05:30.758Z,4.32
2023-12-18T14:07:57.383Z,4.31
2023-12-18T14:10:24.193Z,4.30
2023-12-18T14:12:51.007Z,4.30
2023-12-18T14:15:17.809Z,4.31
2023-12-18T14:17:44.606Z,4.31
2023-12-18T14:20:11.532Z,4.31
2023-12-18T14:22:38.412Z,4.32
2023-12-18T14:25:06.715Z,4.32
2023-12-18T14:27:33.903Z,4.32
2023-12-18T14:30:00.979Z,4.33
2023-12-18T14:32:27.881Z,4.33
2023-12-18T14:34:54.827Z,4.33
2023-12-18T14:37:21.787Z,4.33
2023-12-18T14:39:48.498Z,4.33
2023-12-18T14:42:15.345Z,4.32
2023-12-18T14:44:47.279Z,4.31
2023-12-18T14:47:18.081Z,4.30
2023-12-18T14:49:44.807Z,4.30
2023-12-18T14:52:11.478Z,4.29
2023-12-18T14:54:38.366Z,4.28
2023-12-18T14:57:05.242Z,4.28
2023-12-18T14:59:31.946Z,4.29
2023-12-18T15:02:00.645Z,4.30
2023-12-18T15:04:30.292Z,4.29
2023-12-18T15:06:58.464Z,4.29
2023-12-18T15:09:25.805Z,4.30
2023-12-18T15:11:52.715Z,4.30
2023-12-18T15:14:19.586Z,4.28
2023-12-18T15:16:46.294Z,4.28
2023-12-18T15:19:13.418Z,4.27
2023-12-18T15:21:40.525Z,4.27
